Time;durP1;ratioP1;P1;durP2;ratioP2;P2;SDS_P1;SDS_P2;PMS_P1;PMS_P2;Temp;Humidity;BMP_temperature;BMP_pressure;BME280_temperature;BME280_humidity;BME280_pressure;Samples;Min_cycle;Max_cycle;Signal;HPM_P1;HPM_P2
2022/05/10 00:00:03;;;;;;;10.30;10.00;;;14.20;99.90;;;;;;6328876;22;20196;-83
2022/05/10 00:05:17;;;;;;;10.35;10.05;;;14.10;99.90;;;;;;6328880;22;20204;-84
2022/05/10 00:07:48;;;;;;;10.50;10.20;;;14.10;99.90;;;;;;6331000;22;20197;-83
2022/05/10 00:10:16;;;;;;;10.30;10.00;;;14.00;99.90;;;;;;6328712;22;20243;-83
2022/05/10 00:15:33;;;;;;;10.50;10.20;;;14.00;99.90;;;;;;6323396;22;20207;-83
2022/05/10 00:18:02;;;;;;;10.60;10.30;;;14.00;99.90;;;;;;6330191;22;20220;-84
2022/05/10 00:20:32;;;;;;;10.43;10.13;;;13.90;99.90;;;;;;6329813;22;20228;-83
2022/05/10 00:23:02;;;;;;;10.87;10.57;;;13.90;99.90;;;;;;6328306;22;20196;-83
2022/05/10 00:25:31;;;;;;;10.70;10.40;;;13.80;99.90;;;;;;6336122;22;20189;-81
2022/05/10 00:28:02;;;;;;;10.53;10.23;;;13.80;99.90;;;;;;6343805;22;20183;-83
2022/05/10 00:30:30;;;;;;;10.57;10.27;;;13.70;99.90;;;;;;6343646;22;20173;-82
2022/05/10 00:32:58;;;;;;;10.70;10.40;;;13.70;99.90;;;;;;6342684;22;20181;-82
2022/05/10 00:35:29;;;;;;;10.90;10.60;;;13.70;99.90;;;;;;6341635;22;20235;-82
2022/05/10 00:37:59;;;;;;;10.97;10.67;;;13.60;99.90;;;;;;6341677;22;20231;-82
2022/05/10 00:40:38;;;;;;;10.60;10.30;;;13.60;99.90;;;;;;6341218;22;20203;-82
2022/05/10 00:43:22;;;;;;;10.73;10.43;;;13.50;99.90;;;;;;6340685;22;20188;-83
2022/05/10 00:46:02;;;;;;;10.60;10.30;;;13.40;99.90;;;;;;6322681;22;20221;-83
2022/05/10 00:48:39;;;;;;;10.60;10.30;;;13.40;99.90;;;;;;6325801;22;20199;-83
2022/05/10 00:51:17;;;;;;;10.67;10.37;;;13.40;99.90;;;;;;6334299;22;20236;-81
2022/05/10 00:54:06;;;;;;;10.67;10.37;;;13.30;99.90;;;;;;6341382;22;20204;-80
2022/05/10 00:56:45;;;;;;;10.70;10.40;;;13.20;99.90;;;;;;6341462;22;20175;-81
2022/05/10 00:59:20;;;;;;;10.73;10.43;;;13.20;99.90;;;;;;6341531;22;20177;-82
2022/05/10 01:02:07;;;;;;;10.70;10.40;;;13.10;99.90;;;;;;6339221;22;20236;-82
2022/05/10 01:04:57;;;;;;;11.03;10.73;;;13.10;99.90;;;;;;6338946;22;20189;-81
2022/05/10 01:07:34;;;;;;;10.90;10.60;;;13.10;99.90;;;;;;6341398;22;20169;-82
2022/05/10 01:12:44;;;;;;;10.80;10.50;;;13.00;99.90;;;;;;6308712;22;20185;-83
2022/05/10 01:15:18;;;;;;;10.80;10.50;;;12.90;99.90;;;;;;6305954;22;20213;-83
2022/05/10 01:17:48;;;;;;;10.70;10.40;;;12.80;99.90;;;;;;6304003;22;20196;-84
2022/05/10 01:23:36;;;;;;;10.70;10.40;;;12.70;99.90;;;;;;6294937;22;20240;-84
2022/05/10 01:26:10;;;;;;;10.80;10.50;;;12.70;99.90;;;;;;6296101;22;20235;-84
2022/05/10 01:28:48;;;;;;;10.60;10.30;;;12.60;99.90;;;;;;6297487;22;20201;-84
2022/05/10 01:31:25;;;;;;;10.70;10.40;;;12.60;99.90;;;;;;6297895;22;20204;-84
2022/05/10 01:33:58;;;;;;;10.73;10.43;;;12.60;99.90;;;;;;6297650;22;20217;-84
2022/05/10 01:36:35;;;;;;;10.83;10.53;;;12.60;99.90;;;;;;6296887;22;20185;-83
2022/05/10 01:39:13;;;;;;;10.90;10.60;;;12.50;99.90;;;;;;6297528;22;20202;-85
2022/05/10 01:41:52;;;;;;;10.50;10.20;;;12.40;99.90;;;;;;6300498;22;20173;-84
2022/05/10 01:44:32;;;;;;;10.60;10.30;;;12.40;99.90;;;;;;6293512;22;20209;-85
2022/05/10 01:47:08;;;;;;;10.70;10.40;;;12.40;99.90;;;;;;6295995;22;20248;-85
2022/05/10 01:49:47;;;;;;;10.47;10.17;;;12.30;99.90;;;;;;6297288;22;20195;-84
2022/05/10 01:52:27;;;;;;;10.37;10.07;;;12.30;99.90;;;;;;6297634;22;20197;-86
2022/05/10 01:55:14;;;;;;;10.90;10.60;;;12.30;99.90;;;;;;6298408;22;20227;-86
2022/05/10 01:57:41;;;;;;;11.00;10.70;;;12.20;99.90;;;;;;6297725;22;20201;-86
2022/05/10 02:00:19;;;;;;;10.60;10.30;;;12.20;99.90;;;;;;6297571;22;20251;-86
2022/05/10 02:03:00;;;;;;;10.53;10.23;;;12.20;99.90;;;;;;6297348;22;20196;-87
2022/05/10 02:05:38;;;;;;;10.93;10.63;;;12.10;99.90;;;;;;6297515;22;20263;-86
2022/05/10 02:08:14;;;;;;;10.47;10.17;;;12.10;99.90;;;;;;6298886;22;20195;-86
2022/05/10 02:10:54;;;;;;;10.30;10.00;;;12.00;99.90;;;;;;6298205;22;20220;-85
2022/05/10 02:13:31;;;;;;;10.60;10.30;;;12.10;99.90;;;;;;6298114;22;20197;-86
2022/05/10 02:16:27;;;;;;;10.67;10.37;;;12.00;99.90;;;;;;6294467;22;20410;-86
2022/05/10 02:19:07;;;;;;;10.60;10.30;;;12.10;99.90;;;;;;6293841;22;20412;-85
2022/05/10 02:21:42;;;;;;;10.50;10.20;;;12.00;99.90;;;;;;6293907;22;20203;-86
2022/05/10 02:24:22;;;;;;;10.43;10.13;;;12.00;99.90;;;;;;6292899;22;20324;-85
2022/05/10 02:29:48;;;;;;;10.60;10.30;;;12.00;99.90;;;;;;6299756;22;20181;-86
2022/05/10 02:35:31;;;;;;;10.47;10.17;;;11.90;99.90;;;;;;6308917;22;20185;-85
2022/05/10 02:37:59;;;;;;;10.77;10.47;;;11.80;99.90;;;;;;6309599;22;20380;-86
2022/05/10 02:40:27;;;;;;;10.30;10.00;;;11.60;99.90;;;;;;6309367;22;20190;-86
2022/05/10 02:42:57;;;;;;;10.47;10.17;;;11.60;99.90;;;;;;6308641;22;20294;-85
2022/05/10 02:45:27;;;;;;;10.60;10.30;;;11.50;99.90;;;;;;6304440;22;20198;-85
2022/05/10 02:48:32;;;;;;;10.70;10.40;;;11.50;99.90;;;;;;6302426;22;20243;-86
2022/05/10 02:51:01;;;;;;;10.53;10.23;;;11.50;99.90;;;;;;6296149;22;20212;-86
2022/05/10 02:53:30;;;;;;;10.70;10.40;;;11.50;99.90;;;;;;6292864;22;20193;-86
2022/05/10 02:56:01;;;;;;;10.57;10.27;;;11.50;99.90;;;;;;6292066;22;20204;-85
2022/05/10 02:58:38;;;;;;;10.70;10.40;;;11.50;99.90;;;;;;6292719;22;20197;-85
2022/05/10 03:01:16;;;;;;;10.67;10.37;;;11.40;99.90;;;;;;6291480;22;20200;-85
2022/05/10 03:03:54;;;;;;;10.73;10.43;;;11.40;99.90;;;;;;6291418;22;20662;-85
2022/05/10 03:06:27;;;;;;;10.80;10.50;;;11.30;99.90;;;;;;6292031;22;20457;-85
2022/05/10 03:08:55;;;;;;;10.77;10.47;;;11.20;99.90;;;;;;6291778;22;20193;-85
2022/05/10 03:11:24;;;;;;;10.83;10.53;;;11.20;99.90;;;;;;6290685;22;20686;-85
2022/05/10 03:13:52;;;;;;;11.60;11.20;;;11.10;99.90;;;;;;6290366;22;20216;-85
2022/05/10 03:16:23;;;;;;;11.60;11.20;;;11.10;99.90;;;;;;6291317;22;20237;-85
2022/05/10 03:21:38;;;;;;;11.40;11.00;;;11.10;99.90;;;;;;6289535;22;20185;-85
2022/05/10 03:24:08;;;;;;;11.57;11.17;;;11.10;99.90;;;;;;6291046;22;20208;-85
2022/05/10 03:26:37;;;;;;;11.80;11.40;;;11.10;99.90;;;;;;6290438;22;20193;-86
2022/05/10 03:29:06;;;;;;;11.70;11.30;;;11.10;99.90;;;;;;6290079;22;20194;-86
2022/05/10 03:31:36;;;;;;;11.70;11.30;;;11.10;99.90;;;;;;6289528;22;20272;-86
2022/05/10 03:36:54;;;;;;;11.50;11.10;;;11.10;99.90;;;;;;6290940;22;20185;-86
2022/05/10 03:39:23;;;;;;;11.70;11.30;;;11.10;99.90;;;;;;6291096;22;20189;-86
2022/05/10 03:41:53;;;;;;;11.40;11.00;;;11.10;99.90;;;;;;6290414;22;20229;-86
2022/05/10 03:44:22;;;;;;;11.57;11.17;;;11.10;99.90;;;;;;6289914;22;20198;-86
2022/05/10 03:46:52;;;;;;;11.60;11.20;;;11.10;99.90;;;;;;6290277;22;20213;-86
2022/05/10 03:49:30;;;;;;;11.00;10.70;;;11.10;99.90;;;;;;6290861;22;20193;-86
2022/05/10 03:51:59;;;;;;;11.50;11.10;;;11.10;99.90;;;;;;6290441;22;20190;-86
2022/05/10 03:54:29;;;;;;;11.30;10.90;;;11.10;99.90;;;;;;6289745;22;20213;-86
2022/05/10 03:56:59;;;;;;;11.37;10.97;;;11.10;99.90;;;;;;6290010;22;20194;-87
2022/05/10 03:59:28;;;;;;;10.87;10.57;;;11.10;99.90;;;;;;6292109;22;20245;-85
2022/05/10 04:01:57;;;;;;;10.97;10.67;;;11.10;99.90;;;;;;6289872;22;20198;-86
2022/05/10 04:07:13;;;;;;;10.90;10.60;;;11.10;99.90;;;;;;6290464;22;20201;-86
2022/05/10 04:09:43;;;;;;;10.60;10.30;;;11.10;99.90;;;;;;6289852;22;20219;-86
2022/05/10 04:12:12;;;;;;;10.80;10.50;;;11.00;99.90;;;;;;6289262;22;20202;-86
2022/05/10 04:14:42;;;;;;;10.70;10.40;;;11.00;99.90;;;;;;6288526;22;20208;-86
2022/05/10 04:17:11;;;;;;;10.80;10.50;;;11.00;99.90;;;;;;6289645;22;20248;-86
2022/05/10 04:19:49;;;;;;;10.77;10.47;;;11.00;99.90;;;;;;6289076;22;20220;-85
2022/05/10 04:22:19;;;;;;;11.07;10.67;;;11.00;99.90;;;;;;6289687;22;20204;-86
2022/05/10 04:24:48;;;;;;;10.67;10.37;;;11.00;99.90;;;;;;6289040;22;20205;-86
2022/05/10 04:27:18;;;;;;;11.20;10.80;;;11.00;99.90;;;;;;6290531;22;20193;-86
2022/05/10 04:29:47;;;;;;;10.53;10.23;;;11.00;99.90;;;;;;6297764;22;20264;-86
2022/05/10 04:32:16;;;;;;;10.60;10.30;;;11.00;99.90;;;;;;6291172;22;20289;-86
2022/05/10 04:37:33;;;;;;;10.53;10.23;;;11.00;99.90;;;;;;6288602;22;20197;-87
2022/05/10 04:43:00;;;;;;;11.10;10.70;;;11.10;99.90;;;;;;6228073;23;20222;-86
2022/05/10 04:45:28;;;;;;;10.70;10.40;;;11.10;99.90;;;;;;6244901;22;20282;-86
2022/05/10 04:47:58;;;;;;;10.60;10.30;;;11.20;99.90;;;;;;6276284;22;20185;-87
2022/05/10 04:50:29;;;;;;;10.77;10.47;;;11.20;99.90;;;;;;6310937;22;20182;-87
2022/05/10 04:52:57;;;;;;;11.23;10.83;;;11.20;99.90;;;;;;6310671;22;20181;-86
2022/05/10 04:55:25;;;;;;;10.43;10.13;;;11.30;99.90;;;;;;6309482;22;20174;-87
2022/05/10 04:57:55;;;;;;;10.83;10.53;;;11.30;99.90;;;;;;6308680;22;20244;-86
2022/05/10 05:00:26;;;;;;;10.60;10.30;;;11.40;99.90;;;;;;6298619;22;20205;-86
2022/05/10 05:02:54;;;;;;;10.43;10.13;;;11.50;99.90;;;;;;6294480;22;20214;-86
2022/05/10 05:05:23;;;;;;;10.37;10.07;;;11.50;99.90;;;;;;6291961;22;20205;-86
2022/05/10 05:08:02;;;;;;;10.67;10.37;;;11.60;99.90;;;;;;6290864;22;20193;-86
2022/05/10 05:10:31;;;;;;;10.70;10.40;;;11.60;99.90;;;;;;6291266;22;20196;-85
2022/05/10 05:13:00;;;;;;;10.70;10.40;;;11.70;99.90;;;;;;6290743;22;20355;-86
2022/05/10 05:15:30;;;;;;;10.90;10.60;;;11.80;99.90;;;;;;6290245;22;20211;-86
2022/05/10 05:18:03;;;;;;;11.00;10.70;;;11.80;99.90;;;;;;6291523;22;20228;-86
2022/05/10 05:20:31;;;;;;;10.70;10.40;;;11.90;99.90;;;;;;6297025;22;20305;-86
2022/05/10 05:23:08;;;;;;;10.87;10.57;;;12.00;99.90;;;;;;6308386;22;20193;-86
2022/05/10 05:25:37;;;;;;;11.10;10.80;;;12.10;99.90;;;;;;6292335;22;20198;-86
2022/05/10 05:28:06;;;;;;;10.57;10.27;;;12.20;99.90;;;;;;6289271;22;20220;-83
2022/05/10 05:30:35;;;;;;;10.90;10.60;;;12.30;99.90;;;;;;6285914;22;20365;-84
2022/05/10 05:33:05;;;;;;;10.80;10.50;;;12.50;99.90;;;;;;6296881;22;20201;-84
2022/05/10 05:35:35;;;;;;;10.90;10.60;;;12.60;99.90;;;;;;6287687;22;20201;-84
2022/05/10 05:38:15;;;;;;;10.87;10.57;;;12.70;99.90;;;;;;6287524;22;20350;-85
2022/05/10 05:40:44;;;;;;;10.40;10.10;;;12.80;99.90;;;;;;6287399;22;20639;-83
2022/05/10 05:43:22;;;;;;;10.60;10.30;;;12.80;99.90;;;;;;6286902;22;20193;-84
2022/05/10 05:45:51;;;;;;;10.80;10.50;;;12.90;99.90;;;;;;6293195;22;20200;-80
2022/05/10 05:48:19;;;;;;;10.40;10.10;;;12.90;99.90;;;;;;6335387;22;20208;-80
2022/05/10 05:50:51;;;;;;;10.23;9.93;;;13.00;99.90;;;;;;6328952;22;20208;-80
2022/05/10 05:53:23;;;;;;;10.50;10.20;;;13.10;99.90;;;;;;6325091;22;20197;-80
2022/05/10 05:55:50;;;;;;;10.20;9.90;;;13.20;99.90;;;;;;6323001;22;20211;-80
2022/05/10 05:58:20;;;;;;;10.20;9.90;;;13.30;99.90;;;;;;6322320;22;20204;-80
2022/05/10 06:00:48;;;;;;;10.50;10.20;;;13.40;99.90;;;;;;6322165;22;20200;-80
2022/05/10 06:03:17;;;;;;;10.30;10.00;;;13.50;99.90;;;;;;6322177;22;20189;-80
2022/05/10 06:05:49;;;;;;;10.60;10.30;;;13.60;99.90;;;;;;6320875;22;20205;-80
2022/05/10 06:08:18;;;;;;;10.43;10.13;;;13.70;99.90;;;;;;6321643;22;20239;-80
2022/05/10 06:10:57;;;;;;;10.90;10.60;;;13.80;99.90;;;;;;6321325;22;20259;-80
2022/05/10 06:13:25;;;;;;;10.70;10.40;;;14.00;99.90;;;;;;6321217;22;20223;-80
2022/05/10 06:15:53;;;;;;;10.50;10.20;;;14.10;99.90;;;;;;6320611;22;20201;-80
2022/05/10 06:19:07;;;;;;;10.43;10.13;;;14.30;99.90;;;;;;6321646;22;20209;-80
2022/05/10 06:21:36;;;;;;;10.55;10.25;;;14.50;99.90;;;;;;6237734;22;20214;-79
2022/05/10 06:24:07;;;;;;;10.32;10.02;;;14.70;99.90;;;;;;6321335;22;20250;-79
2022/05/10 06:27:05;;;;;;;10.40;10.10;;;14.80;99.90;;;;;;6321035;22;20283;-80
2022/05/10 06:29:33;;;;;;;10.60;10.30;;;15.00;99.90;;;;;;6324038;22;20189;-81
2022/05/10 06:32:01;;;;;;;10.25;9.95;;;15.10;99.90;;;;;;6323046;22;20201;-81
2022/05/10 06:34:30;;;;;;;10.13;9.82;;;15.30;99.90;;;;;;6322854;22;20185;-80
2022/05/10 06:36:59;;;;;;;10.25;9.95;;;15.50;99.90;;;;;;6322486;22;20228;-79
2022/05/10 06:39:29;;;;;;;10.27;9.98;;;15.70;99.90;;;;;;6322997;22;20201;-80
2022/05/10 06:44:46;;;;;;;10.07;9.77;;;15.90;99.90;;;;;;6322269;22;20232;-81
2022/05/10 06:47:16;;;;;;;10.15;9.85;;;16.10;99.90;;;;;;6322191;22;20232;-81
2022/05/10 06:49:44;;;;;;;10.00;9.70;;;16.20;99.90;;;;;;6323540;22;20256;-81
2022/05/10 06:52:14;;;;;;;10.52;10.23;;;16.30;99.90;;;;;;6321444;22;20237;-82
2022/05/10 06:54:44;;;;;;;10.35;10.05;;;16.40;99.90;;;;;;6322050;22;20216;-80
2022/05/10 06:57:24;;;;;;;10.48;10.18;;;16.60;99.90;;;;;;6323407;22;20221;-81
2022/05/10 07:00:00;;;;;;;10.73;10.43;;;16.70;99.90;;;;;;6323108;22;20211;-80
2022/05/10 07:02:29;;;;;;;10.50;10.20;;;16.70;99.90;;;;;;6322953;22;20184;-80
2022/05/10 07:04:58;;;;;;;10.07;9.77;;;16.80;99.90;;;;;;6323057;22;20211;-80
2022/05/10 07:07:28;;;;;;;10.02;9.73;;;17.00;99.90;;;;;;6336417;22;20196;-79
2022/05/10 07:09:57;;;;;;;9.98;9.68;;;17.10;99.90;;;;;;6338268;22;20223;-79
2022/05/10 07:12:39;;;;;;;10.05;9.75;;;17.20;99.90;;;;;;6325589;22;20189;-80
2022/05/10 07:15:16;;;;;;;9.98;9.68;;;17.40;99.90;;;;;;6322987;22;20727;-79
2022/05/10 07:17:44;;;;;;;10.45;10.15;;;17.50;99.90;;;;;;6327140;22;21036;-80
2022/05/10 07:20:15;;;;;;;10.40;10.10;;;17.60;99.90;;;;;;6337932;22;20215;-80
2022/05/10 07:22:43;;;;;;;10.40;10.10;;;17.80;99.90;;;;;;6336741;22;20243;-80
2022/05/10 07:25:14;;;;;;;10.60;10.30;;;17.90;99.90;;;;;;6325819;22;20193;-80
2022/05/10 07:27:52;;;;;;;10.90;10.60;;;18.00;99.90;;;;;;6322793;22;20208;-80
2022/05/10 07:30:21;;;;;;;10.80;10.50;;;18.10;99.90;;;;;;6322732;22;20246;-80
2022/05/10 07:32:51;;;;;;;10.57;10.27;;;18.30;99.90;;;;;;6322255;22;20197;-81
2022/05/10 07:36:23;;;;;;;10.88;10.57;;;18.40;99.90;;;;;;6321566;22;20200;-79
2022/05/10 07:38:26;;;;;;;11.13;10.82;;;18.40;99.90;;;;;;6321390;22;20304;-79
2022/05/10 07:40:54;;;;;;;10.80;10.50;;;18.60;99.90;;;;;;6323012;22;20222;-81
2022/05/10 07:43:27;;;;;;;10.77;10.48;;;18.70;99.90;;;;;;6322542;22;20201;-80
2022/05/10 07:45:55;;;;;;;10.88;10.57;;;18.80;99.90;;;;;;6321445;22;20215;-80
2022/05/10 07:48:23;;;;;;;11.07;10.77;;;18.80;99.90;;;;;;6321887;22;20657;-79
2022/05/10 07:50:51;;;;;;;11.15;10.85;;;18.90;99.90;;;;;;6322300;22;20197;-80
2022/05/10 07:53:22;;;;;;;11.23;10.90;;;19.00;99.90;;;;;;6322206;22;20201;-79
2022/05/10 07:55:51;;;;;;;11.10;10.80;;;19.10;99.90;;;;;;6325045;22;20197;-79
2022/05/10 07:58:19;;;;;;;11.25;10.95;;;19.20;99.90;;;;;;6318590;22;20204;-76
2022/05/10 08:00:49;;;;;;;10.88;10.57;;;19.30;99.90;;;;;;6317005;22;20199;-76
2022/05/10 08:03:19;;;;;;;11.10;10.80;;;19.40;99.90;;;;;;6317159;22;20192;-76
2022/05/10 08:05:47;;;;;;;10.95;10.65;;;19.50;99.90;;;;;;6317301;22;20204;-75
2022/05/10 08:08:18;;;;;;;11.07;10.77;;;19.60;99.90;;;;;;6317047;22;20277;-75
2022/05/10 08:10:48;;;;;;;10.93;10.63;;;19.80;99.90;;;;;;6316920;22;20268;-75
2022/05/10 08:13:19;;;;;;;11.00;10.70;;;19.90;99.90;;;;;;6318033;22;20185;-76
2022/05/10 08:15:48;;;;;;;11.10;10.80;;;20.10;99.90;;;;;;6317574;22;20255;-75
2022/05/10 08:18:16;;;;;;;10.80;10.50;;;20.30;99.90;;;;;;6317589;22;20701;-76
2022/05/10 08:20:45;;;;;;;10.98;10.68;;;20.50;99.90;;;;;;6317517;22;20197;-76
2022/05/10 08:23:22;;;;;;;10.90;10.60;;;20.60;99.90;;;;;;6317552;22;20205;-76
2022/05/10 08:25:53;;;;;;;10.82;10.52;;;20.80;99.90;;;;;;6313020;22;20204;-75
2022/05/10 08:28:22;;;;;;;10.80;10.50;;;21.00;99.90;;;;;;6317133;22;20201;-76
2022/05/10 08:30:52;;;;;;;11.00;10.70;;;21.10;99.90;;;;;;6317543;22;20192;-75
2022/05/10 08:33:23;;;;;;;11.10;10.80;;;21.40;99.90;;;;;;6317548;22;20201;-79
2022/05/10 08:35:51;;;;;;;11.23;10.93;;;21.60;99.90;;;;;;6320890;22;20208;-79
2022/05/10 08:38:19;;;;;;;10.93;10.63;;;21.80;99.90;;;;;;6321033;22;20259;-79
2022/05/10 08:40:51;;;;;;;10.68;10.38;;;21.90;99.90;;;;;;6321492;22;20205;-79
2022/05/10 08:43:25;;;;;;;10.98;10.68;;;22.10;99.90;;;;;;6323972;22;20189;-79
2022/05/10 08:45:55;;;;;;;10.98;10.68;;;22.20;99.90;;;;;;6335759;22;20263;-78
2022/05/10 08:48:26;;;;;;;10.82;10.52;;;22.50;99.90;;;;;;6337217;22;20212;-79
2022/05/10 08:50:56;;;;;;;10.80;10.50;;;22.70;99.90;;;;;;6320582;22;20188;-78
2022/05/10 08:53:26;;;;;;;10.98;10.68;;;22.90;99.90;;;;;;6324384;22;20192;-79
2022/05/10 08:56:03;;;;;;;11.20;10.90;;;23.10;99.90;;;;;;6322957;22;20205;-79
2022/05/10 08:58:53;;;;;;;11.07;10.77;;;23.20;99.90;;;;;;6321629;22;20257;-79
2022/05/10 09:01:30;;;;;;;11.02;10.73;;;23.40;99.90;;;;;;6322464;22;20197;-80
2022/05/10 09:04:08;;;;;;;10.73;10.43;;;23.30;99.90;;;;;;6321910;22;20184;-78
2022/05/10 09:06:45;;;;;;;10.90;10.60;;;23.20;99.90;;;;;;6320532;22;20266;-78
2022/05/10 09:09:27;;;;;;;11.10;10.80;;;23.30;99.90;;;;;;6320692;22;20193;-79
2022/05/10 09:12:03;;;;;;;10.90;10.60;;;23.50;99.90;;;;;;6320092;22;20264;-79
2022/05/10 09:14:40;;;;;;;10.75;10.45;;;23.60;99.90;;;;;;6322214;22;20219;-79
2022/05/10 09:17:18;;;;;;;11.10;10.80;;;23.60;99.90;;;;;;6318815;22;20235;-80
2022/05/10 09:19:47;;;;;;;10.90;10.60;;;23.90;99.90;;;;;;6322190;22;20196;-80
2022/05/10 09:25:32;;;;;;;10.98;10.68;;;24.00;99.90;;;;;;6323264;22;20267;-80
2022/05/10 09:28:01;;;;;;;10.90;10.60;;;24.10;99.90;;;;;;6325362;22;20223;-79
2022/05/10 09:30:32;;;;;;;10.80;10.50;;;23.90;99.90;;;;;;6325777;22;20196;-79
2022/05/10 09:36:12;;;;;;;10.50;10.20;;;23.50;99.90;;;;;;6324427;22;20197;-79
2022/05/10 09:38:55;;;;;;;10.60;10.30;;;23.40;99.90;;;;;;6324886;22;20247;-80
2022/05/10 09:41:40;;;;;;;10.65;10.35;;;23.40;99.90;;;;;;6325182;22;20181;-79
2022/05/10 09:44:26;;;;;;;10.85;10.55;;;23.60;99.90;;;;;;6322154;22;20193;-80
2022/05/10 09:47:15;;;;;;;11.65;11.25;;;23.90;99.90;;;;;;6325364;22;20200;-80
2022/05/10 09:49:45;;;;;;;11.07;10.77;;;24.10;99.90;;;;;;6324759;22;20181;-80
2022/05/10 09:52:21;;;;;;;11.05;10.75;;;24.30;99.90;;;;;;6324921;22;20254;-79
2022/05/10 09:54:52;;;;;;;11.07;10.77;;;24.40;99.90;;;;;;6324561;22;20192;-80
2022/05/10 09:57:37;;;;;;;11.27;10.98;;;24.50;99.90;;;;;;6324895;22;20212;-80
2022/05/10 10:00:08;;;;;;;10.82;10.52;;;24.70;99.90;;;;;;6324534;22;20259;-80
2022/05/10 10:02:39;;;;;;;11.20;10.90;;;24.70;99.90;;;;;;6324413;22;20193;-79
2022/05/10 10:05:29;;;;;;;11.45;11.15;;;24.90;99.90;;;;;;6323949;22;20192;-79
2022/05/10 10:08:01;;;;;;;11.25;10.95;;;25.00;99.90;;;;;;6324749;22;20216;-79
2022/05/10 10:10:32;;;;;;;11.20;10.90;;;25.10;99.90;;;;;;6321275;22;20223;-80
2022/05/10 10:13:00;;;;;;;11.20;10.90;;;25.10;99.90;;;;;;6322988;22;20311;-79
2022/05/10 10:15:38;;;;;;;11.20;10.90;;;25.20;99.90;;;;;;6322126;22;20205;-79
2022/05/10 10:18:08;;;;;;;11.40;11.10;;;25.30;99.90;;;;;;6322800;22;20334;-79
2022/05/10 10:20:46;;;;;;;11.13;10.82;;;25.50;99.90;;;;;;6322782;22;20211;-79
2022/05/10 10:23:25;;;;;;;11.10;10.80;;;25.70;99.90;;;;;;6321683;22;20197;-79
2022/05/10 10:25:57;;;;;;;11.30;11.00;;;25.50;99.90;;;;;;6322532;22;20197;-79
2022/05/10 10:28:33;;;;;;;11.50;11.20;;;25.70;99.90;;;;;;6322962;22;20274;-80
2022/05/10 10:31:13;;;;;;;11.20;10.90;;;26.10;99.90;;;;;;6321188;22;20189;-78
2022/05/10 10:33:49;;;;;;;11.68;11.27;;;26.60;99.90;;;;;;6321645;22;20193;-78
2022/05/10 10:36:27;;;;;;;10.98;10.68;;;26.80;99.90;;;;;;6322421;22;20196;-78
2022/05/10 10:39:08;;;;;;;11.13;10.82;;;27.10;99.90;;;;;;6322253;22;20196;-78
2022/05/10 10:41:45;;;;;;;11.32;11.02;;;27.40;99.90;;;;;;6321924;22;20188;-78
2022/05/10 10:44:22;;;;;;;11.00;10.70;;;27.60;99.90;;;;;;6321788;22;20196;-78
2022/05/10 10:47:17;;;;;;;10.85;10.55;;;27.60;99.90;;;;;;5181691;27;20607;-79
2022/05/10 10:49:55;;;;;;;10.32;10.02;;;28.00;99.90;;;;;;5161420;27;20285;-80
2022/05/10 10:52:25;;;;;;;10.27;9.98;;;28.00;99.90;;;;;;5160452;27;20203;-79
2022/05/10 10:54:54;;;;;;;10.20;9.90;;;27.40;99.90;;;;;;5159935;27;20215;-79
2022/05/10 10:57:52;;;;;;;10.40;10.10;;;26.90;99.90;;;;;;5159944;27;20235;-79
2022/05/10 11:00:22;;;;;;;10.27;9.98;;;26.50;99.90;;;;;;5160565;27;20227;-79
2022/05/10 11:03:10;;;;;;;10.38;10.07;;;26.10;99.90;;;;;;5160383;27;20231;-79
2022/05/10 11:06:19;;;;;;;10.52;10.23;;;26.30;99.90;;;;;;5160666;27;20231;-79
2022/05/10 11:09:27;;;;;;;10.95;10.65;;;26.70;99.90;;;;;;5161898;27;20241;-79
2022/05/10 11:12:12;;;;;;;11.43;11.13;;;27.30;99.90;;;;;;5161865;27;20292;-79
2022/05/10 11:15:00;;;;;;;11.50;11.18;;;27.70;99.90;;;;;;5160835;27;20280;-79
2022/05/10 11:17:48;;;;;;;11.10;10.80;;;27.70;99.90;;;;;;5160041;27;20231;-78
2022/05/10 11:23:29;;;;;;;11.20;10.90;;;27.70;99.90;;;;;;5165600;27;20570;-78
2022/05/10 11:26:25;;;;;;;11.30;11.00;;;27.60;99.90;;;;;;5145333;27;20236;-79
2022/05/10 11:29:32;;;;;;;10.80;10.50;;;27.10;99.90;;;;;;5140655;27;20277;-79
2022/05/10 11:32:19;;;;;;;11.00;10.70;;;26.60;99.90;;;;;;5141186;27;20254;-79
2022/05/10 11:35:12;;;;;;;11.00;10.70;;;26.70;99.90;;;;;;5140779;27;20228;-79
2022/05/10 11:37:53;;;;;;;11.05;10.75;;;27.00;99.90;;;;;;5140049;27;20236;-79
2022/05/10 11:40:59;;;;;;;10.80;10.50;;;27.40;99.90;;;;;;5140345;27;20232;-79
2022/05/10 11:44:19;;;;;;;10.80;10.50;;;27.60;99.90;;;;;;5140751;27;20231;-79
2022/05/10 11:47:34;;;;;;;10.88;10.57;;;27.90;99.90;;;;;;5164346;22;20268;-81
2022/05/10 11:50:36;;;;;;;10.80;10.50;;;27.60;99.90;;;;;;5103480;27;20291;-83
2022/05/10 11:53:51;;;;;;;10.55;10.25;;;27.40;99.90;;;;;;5096764;28;20232;-82
2022/05/10 11:56:22;;;;;;;11.02;10.73;;;27.40;99.90;;;;;;5093724;28;20248;-84
2022/05/10 11:58:51;;;;;;;11.00;10.70;;;27.80;99.90;;;;;;5094889;28;20238;-83
2022/05/10 12:01:44;;;;;;;10.77;10.48;;;28.20;99.90;;;;;;5096476;28;20241;-81
2022/05/10 12:04:40;;;;;;;11.00;10.70;;;28.70;99.90;;;;;;5094683;28;20234;-86
2022/05/10 12:07:44;;;;;;;11.23;10.93;;;28.90;99.90;;;;;;5102116;28;20233;-81
2022/05/10 12:10:42;;;;;;;11.43;11.13;;;28.60;99.90;;;;;;5097308;28;20221;-82
2022/05/10 12:21:19;;;;;;;11.40;11.10;;;28.70;99.90;;;;;;5113894;27;20229;-81
2022/05/10 12:22:07;;;;;;;11.15;10.85;;;29.70;99.90;;;;;;5082097;28;20265;-86
2022/05/10 12:27:43;;;;;;;10.80;10.50;;;29.80;99.90;;;;;;5095247;28;20252;-87
2022/05/10 12:30:39;;;;;;;11.18;10.88;;;29.50;99.90;;;;;;5095956;28;20286;-87
2022/05/10 12:33:43;;;;;;;10.70;10.40;;;29.40;99.90;;;;;;5089785;28;20230;-87
2022/05/10 12:39:07;;;;;;;10.75;10.45;;;28.90;99.90;;;;;;5081212;28;20283;-87
2022/05/10 12:42:00;;;;;;;11.00;10.70;;;28.70;99.90;;;;;;5074151;28;20234;-86
2022/05/10 12:48:11;;;;;;;10.77;10.48;;;29.20;99.90;;;;;;5078230;28;20260;-85
2022/05/10 12:50:52;;;;;;;10.90;10.60;;;29.10;99.90;;;;;;5081393;28;20238;-86
2022/05/10 12:53:29;;;;;;;10.77;10.48;;;28.70;99.90;;;;;;5082788;28;20226;-86
2022/05/10 12:56:07;;;;;;;10.70;10.40;;;28.50;99.90;;;;;;5084171;28;20238;-87
2022/05/10 12:58:44;;;;;;;10.75;10.45;;;28.20;99.90;;;;;;5083987;28;20297;-86
2022/05/10 13:01:16;;;;;;;11.10;10.80;;;27.90;99.90;;;;;;5083695;28;20230;-85
2022/05/10 13:03:52;;;;;;;11.20;10.90;;;27.60;99.90;;;;;;5078567;28;20230;-86
2022/05/10 13:06:33;;;;;;;11.07;10.77;;;27.50;99.90;;;;;;5083660;28;20237;-86
2022/05/10 13:09:29;;;;;;;11.00;10.70;;;27.80;99.90;;;;;;5072141;28;20260;-85
2022/05/10 13:12:05;;;;;;;11.00;10.70;;;28.10;99.90;;;;;;5069372;28;20281;-86
2022/05/10 13:14:44;;;;;;;10.90;10.60;;;28.60;99.90;;;;;;5070672;28;20222;-85
2022/05/10 13:17:14;;;;;;;10.98;10.68;;;28.90;99.90;;;;;;5080391;28;20238;-84
2022/05/10 13:19:51;;;;;;;11.20;10.90;;;29.30;99.90;;;;;;5088799;28;20238;-84
2022/05/10 13:22:20;;;;;;;11.20;10.90;;;29.40;99.90;;;;;;5079824;28;20222;-84
2022/05/10 13:24:51;;;;;;;10.80;10.50;;;29.50;99.90;;;;;;5088336;28;20229;-84
2022/05/10 13:27:27;;;;;;;10.68;10.38;;;29.50;99.90;;;;;;5087362;27;20219;-82
2022/05/10 13:29:57;;;;;;;11.00;10.70;;;29.70;99.90;;;;;;5087295;27;20297;-84
2022/05/10 13:32:37;;;;;;;10.35;10.05;;;29.70;99.90;;;;;;5080203;28;20219;-85
2022/05/10 13:35:24;;;;;;;10.77;10.48;;;29.60;99.90;;;;;;5083546;27;20202;-85
2022/05/10 13:38:03;;;;;;;10.80;10.50;;;29.80;99.90;;;;;;5079271;28;20238;-84
2022/05/10 13:40:35;;;;;;;10.77;10.48;;;29.70;99.90;;;;;;5083708;28;20226;-83
2022/05/10 13:43:12;;;;;;;10.68;10.38;;;29.40;99.90;;;;;;5090720;28;20218;-85
2022/05/10 13:45:42;;;;;;;10.25;9.95;;;29.30;99.90;;;;;;5083117;28;20222;-85
2022/05/10 13:48:17;;;;;;;10.50;10.20;;;29.50;99.90;;;;;;5088022;28;20233;-85
2022/05/10 13:50:57;;;;;;;10.70;10.40;;;29.30;99.90;;;;;;5090187;28;20219;-85
2022/05/10 13:53:37;;;;;;;10.43;10.13;;;29.20;99.90;;;;;;5093277;28;20233;-84
2022/05/10 13:56:14;;;;;;;10.77;10.48;;;29.10;99.90;;;;;;5092656;27;20278;-85
2022/05/10 13:58:46;;;;;;;10.80;10.50;;;29.00;99.90;;;;;;5092798;28;20321;-86
2022/05/10 14:01:40;;;;;;;10.68;10.38;;;28.90;99.90;;;;;;5089305;28;20266;-86
2022/05/10 14:04:15;;;;;;;10.90;10.60;;;28.90;99.90;;;;;;5096430;28;20416;-83
2022/05/10 14:06:53;;;;;;;10.90;10.60;;;28.60;99.90;;;;;;5097651;27;20210;-80
2022/05/10 14:09:26;;;;;;;10.95;10.65;;;28.30;99.90;;;;;;5099588;27;20245;-83